Terminal Aerodrome Forecast
Issued by NWS

Current Version | Previous Version | Text Only | Print | Product List | Glossary On
Versions: 1 2 3 4 5 6 7 8 9 10 11 12 13 14 15 16 17 18 19 20
000
FTAK31 PAJN 011700
TAFAJN
TAF
PAJN 011725Z 0118/0218 07010G15KT P6SM FEW200 WS020/03030KT
     FM012000 07010G18KT P6SM SKC WS020/04035KT
     FM020200 08010G18KT P6SM SKC WS020/05040KT
     FM020800 08010KT P6SM SKC WS020/05035KT
     FM021400 VRB06KT P6SM SKC WS020/05030KT=

USA.gov is the U.S. government's official web portal to all federal, state and local government web resources and services.